Time;durP1;ratioP1;P1;durP2;ratioP2;P2;SDS_P1;SDS_P2;PMS_P1;PMS_P2;Temp;Humidity;BMP_temperature;BMP_pressure;BME280_temperature;BME280_humidity;BME280_pressure;Samples;Min_cycle;Max_cycle;Signal;HPM_P1;HPM_P2
2023/01/06 00:00:36;;;;;;;4.60;1.05;;;;;;;10.98;79.30;99487.69;4990569;28;20042;-59
2023/01/06 00:03:03;;;;;;;4.00;1.35;;;;;;;10.99;79.57;99492.88;4990773;28;20042;-59
2023/01/06 00:05:30;;;;;;;4.88;1.27;;;;;;;10.96;78.46;99492.91;4986062;28;20042;-60
2023/01/06 00:07:57;;;;;;;3.70;0.70;;;;;;;10.99;79.67;99472.13;4993951;28;20232;-59
2023/01/06 00:10:24;;;;;;;2.88;0.50;;;;;;;10.98;79.45;99470.41;4996855;28;20077;-59
2023/01/06 00:12:50;;;;;;;5.25;0.80;;;;;;;10.99;79.40;99477.31;4994963;28;20524;-59
2023/01/06 00:15:17;;;;;;;1.83;0.95;;;;;;;10.95;79.50;99548.19;4997949;28;20132;-59
2023/01/06 00:17:45;;;;;;;1.55;0.35;;;;;;;10.86;78.50;99569.03;4995129;28;20622;-58
2023/01/06 00:20:12;;;;;;;0.75;0.52;;;;;;;10.71;78.43;99570.06;4994800;28;20674;-58
2023/01/06 00:22:40;;;;;;;1.17;0.52;;;;;;;10.54;78.36;99578.88;4997690;28;20054;-59
2023/01/06 00:25:11;;;;;;;0.73;0.73;;;;;;;10.37;77.99;99586.78;4991349;28;20046;-59
2023/01/06 00:27:39;;;;;;;0.68;0.60;;;;;;;10.24;77.23;99586.03;4993349;28;20247;-59
2023/01/06 00:30:06;;;;;;;1.20;0.30;;;;;;;10.19;77.30;99596.41;4992895;28;20054;-59
2023/01/06 00:32:34;;;;;;;0.45;0.45;;;;;;;10.09;77.96;99602.53;4991046;28;20088;-59
2023/01/06 00:35:01;;;;;;;0.22;0.22;;;;;;;9.99;77.55;99592.25;5005379;28;20049;-58
2023/01/06 00:37:27;;;;;;;0.40;0.10;;;;;;;9.94;77.90;99599.19;4994215;28;20103;-58
2023/01/06 00:39:54;;;;;;;0.43;0.28;;;;;;;9.81;77.67;99602.72;4991365;28;20502;-58
2023/01/06 00:42:21;;;;;;;0.40;0.40;;;;;;;9.74;77.53;99596.75;4992796;28;20107;-58
2023/01/06 00:44:48;;;;;;;1.80;0.22;;;;;;;9.69;77.77;99608.84;4990613;28;20140;-58
2023/01/06 00:47:15;;;;;;;0.88;0.88;;;;;;;9.58;77.18;99606.31;4994862;28;20604;-58
2023/01/06 00:49:42;;;;;;;0.35;0.35;;;;;;;9.55;77.58;99619.28;5005246;28;20667;-56
2023/01/06 00:52:09;;;;;;;1.10;0.63;;;;;;;9.45;77.61;99621.03;4996953;28;20100;-57
2023/01/06 00:54:36;;;;;;;0.45;0.38;;;;;;;9.38;77.67;99635.72;4996593;28;20142;-58
2023/01/06 00:57:05;;;;;;;0.60;0.60;;;;;;;9.30;77.34;99637.47;4995505;28;20049;-58
2023/01/06 00:59:32;;;;;;;0.20;0.20;;;;;;;9.22;77.31;99643.53;4987335;28;20455;-59
2023/01/06 01:01:59;;;;;;;0.52;0.52;;;;;;;9.13;77.23;99635.81;4995154;28;20054;-58
2023/01/06 01:04:26;;;;;;;1.75;0.20;;;;;;;9.13;77.49;99626.31;4991172;28;20053;-59
2023/01/06 01:06:53;;;;;;;0.13;0.10;;;;;;;9.09;77.54;99628.94;4986234;28;20058;-57
2023/01/06 01:09:23;;;;;;;0.57;0.57;;;;;;;9.07;77.42;99630.66;4997013;28;20133;-59
2023/01/06 01:14:42;;;;;;;0.63;0.63;;;;;;;9.01;76.85;99613.47;4987196;28;20065;-58
2023/01/06 01:17:10;;;;;;;0.57;0.57;;;;;;;9.00;77.59;99635.88;4988652;28;20473;-59
2023/01/06 01:19:38;;;;;;;0.65;0.30;;;;;;;8.96;77.52;99644.50;4993756;28;20778;-58
2023/01/06 01:22:05;;;;;;;0.73;0.43;;;;;;;8.98;77.77;99660.84;4989957;28;20126;-58
2023/01/06 01:24:32;;;;;;;0.40;0.32;;;;;;;8.97;77.57;99656.53;4988906;28;20070;-58
2023/01/06 01:26:59;;;;;;;0.25;0.25;;;;;;;8.97;77.94;99659.13;4991146;28;20463;-59
2023/01/06 01:29:25;;;;;;;0.35;0.35;;;;;;;8.96;77.77;99667.75;4993715;28;20078;-59
2023/01/06 01:31:52;;;;;;;0.70;0.70;;;;;;;8.96;77.74;99665.16;4990825;28;20131;-59
2023/01/06 01:34:19;;;;;;;0.70;0.55;;;;;;;8.95;78.07;99657.41;4991344;28;20080;-58
2023/01/06 01:36:48;;;;;;;0.77;0.77;;;;;;;8.97;77.98;99658.25;4994420;28;20065;-59
2023/01/06 01:39:18;;;;;;;0.60;0.50;;;;;;;8.97;78.05;99648.78;4991140;28;20078;-58
2023/01/06 01:41:45;;;;;;;0.40;0.32;;;;;;;8.94;78.06;99638.47;4996190;28;20081;-59
2023/01/06 01:44:52;;;;;;;0.47;0.35;;;;;;;8.88;77.76;99646.22;5002070;28;20081;-58
2023/01/06 01:50:13;;;;;;;1.10;1.10;;;;;;;8.79;78.01;99656.56;5044865;27;20394;-59
2023/01/06 01:52:42;;;;;;;1.40;1.30;;;;;;;8.73;77.88;99653.16;5011715;28;20054;-59
2023/01/06 01:55:10;;;;;;;1.88;1.33;;;;;;;8.67;77.79;99657.44;4998727;28;20718;-58
2023/01/06 01:57:49;;;;;;;1.13;1.13;;;;;;;8.58;77.42;99656.59;4998632;28;20074;-59
2023/01/06 02:00:17;;;;;;;2.40;1.35;;;;;;;8.54;77.93;99661.78;5010616;28;20049;-59
2023/01/06 02:02:44;;;;;;;4.32;1.27;;;;;;;8.48;77.90;99660.88;4996903;28;20092;-59
2023/01/06 02:05:15;;;;;;;1.13;1.13;;;;;;;8.46;77.63;99674.63;4997000;28;20045;-60
2023/01/06 02:07:41;;;;;;;1.15;1.15;;;;;;;8.35;78.00;99677.22;4999773;28;20050;-58
2023/01/06 02:10:19;;;;;;;2.08;1.73;;;;;;;8.34;78.36;99680.63;4996489;28;20066;-59
2023/01/06 02:12:49;;;;;;;1.33;1.20;;;;;;;8.33;78.25;99689.25;4996552;28;20081;-59
2023/01/06 02:23:41;;;;;;;0.40;0.30;;;;;;;8.32;78.12;99700.44;5016108;28;20420;-59
2023/01/06 02:26:47;;;;;;;0.88;0.57;;;;;;;8.22;78.26;99718.50;4991678;28;20042;-59
2023/01/06 02:29:48;;;;;;;0.45;0.30;;;;;;;8.16;77.56;99728.81;5002039;28;20042;-58
2023/01/06 02:41:04;;;;;;;0.90;0.88;;;;;;;7.98;77.93;99734.78;5060149;27;20409;-58
2023/01/06 02:43:45;;;;;;;2.00;1.90;;;;;;;7.95;77.69;99740.78;5022212;28;20511;-58
2023/01/06 02:49:30;;;;;;;1.83;1.73;;;;;;;7.83;77.77;99753.63;5054421;27;20404;-59
2023/01/06 02:52:08;;;;;;;1.48;0.13;;;;;;;7.81;78.13;99747.63;5017390;28;20112;-59
2023/01/06 03:02:48;;;;;;;1.67;0.25;;;;;;;7.68;77.76;99757.88;5022353;27;20396;-58
2023/01/06 03:05:16;;;;;;;1.60;0.43;;;;;;;7.64;78.60;99763.88;5011980;28;20053;-58
2023/01/06 03:07:46;;;;;;;4.82;0.40;;;;;;;7.61;78.55;99761.28;5013466;28;20065;-59
2023/01/06 03:10:15;;;;;;;1.55;0.13;;;;;;;7.59;77.94;99760.41;5016097;28;20049;-58
2023/01/06 03:12:51;;;;;;;2.08;0.40;;;;;;;7.53;77.84;99768.97;5016386;28;20120;-59
2023/01/06 03:15:19;;;;;;;2.35;0.47;;;;;;;7.55;78.72;99771.56;5020443;28;20129;-58
2023/01/06 03:17:46;;;;;;;0.75;0.35;;;;;;;7.51;78.48;99780.13;5017481;28;20073;-59
2023/01/06 03:20:13;;;;;;;0.65;0.55;;;;;;;7.50;78.62;99783.56;5016683;28;20041;-58
2023/01/06 03:22:40;;;;;;;0.60;0.50;;;;;;;7.45;78.34;99793.84;5015842;28;20051;-58
2023/01/06 03:25:08;;;;;;;2.38;0.60;;;;;;;7.42;78.48;99776.66;5017902;28;20563;-59
2023/01/06 03:27:35;;;;;;;0.85;0.25;;;;;;;7.40;77.90;99773.19;5019543;28;20056;-58
2023/01/06 03:30:07;;;;;;;1.80;0.50;;;;;;;7.39;77.75;99771.47;5019622;28;20049;-59
2023/01/06 03:35:22;;;;;;;4.00;0.52;;;;;;;7.28;78.54;99768.84;5021260;28;20946;-59
2023/01/06 03:43:15;;;;;;;2.95;0.52;;;;;;;7.24;77.36;99779.97;5091803;27;20401;-58
2023/01/06 03:51:41;;;;;;;3.63;0.47;;;;;;;7.15;77.36;99772.16;5056395;28;20400;-58
2023/01/06 03:59:30;;;;;;;1.85;1.38;;;;;;;7.06;78.98;99770.41;5050701;27;20389;-58
2023/01/06 04:01:58;;;;;;;4.00;1.20;;;;;;;7.01;77.56;99770.38;5012797;28;20073;-58
2023/01/06 04:04:24;;;;;;;2.35;1.15;;;;;;;6.98;78.14;99767.75;5013032;28;20493;-57
2023/01/06 04:06:51;;;;;;;2.15;1.33;;;;;;;6.94;78.31;99772.03;5020756;28;20104;-58
2023/01/06 04:09:18;;;;;;;1.85;1.75;;;;;;;6.93;77.30;99762.56;5013641;28;20099;-58
2023/01/06 04:14:31;;;;;;;2.10;1.50;;;;;;;6.87;78.00;99767.69;5014140;28;20092;-58
2023/01/06 04:16:57;;;;;;;4.60;1.75;;;;;;;6.84;78.13;99765.09;5016412;28;20848;-57
2023/01/06 04:19:24;;;;;;;2.92;1.75;;;;;;;6.82;78.35;99772.78;5017165;28;20069;-57
2023/01/06 04:21:50;;;;;;;2.40;0.50;;;;;;;6.78;78.36;99767.59;5020578;28;20764;-58
2023/01/06 04:24:17;;;;;;;2.42;1.63;;;;;;;6.76;77.94;99769.31;5019199;28;20074;-59
2023/01/06 04:26:44;;;;;;;1.48;1.23;;;;;;;6.72;77.74;99767.56;5017224;28;20131;-60
2023/01/06 04:29:10;;;;;;;1.67;1.58;;;;;;;6.69;78.86;99764.09;5022059;28;20049;-56
2023/01/06 04:31:37;;;;;;;1.95;1.85;;;;;;;6.68;78.14;99774.38;5021331;28;20069;-57
2023/01/06 04:34:04;;;;;;;2.72;1.70;;;;;;;6.65;77.61;99776.91;5017481;28;20161;-57
2023/01/06 04:36:30;;;;;;;1.60;1.50;;;;;;;6.62;78.24;99784.63;5016850;28;20104;-57
2023/01/06 04:38:57;;;;;;;3.22;1.58;;;;;;;6.60;78.22;99784.63;5015067;28;20041;-57
2023/01/06 04:41:23;;;;;;;1.85;1.75;;;;;;;6.57;79.09;99782.00;5014278;28;20077;-58
2023/01/06 04:43:50;;;;;;;0.95;0.20;;;;;;;6.56;78.78;99798.31;5018669;28;20513;-58
2023/01/06 04:46:17;;;;;;;5.18;1.27;;;;;;;6.54;78.99;99794.84;5018592;28;20131;-57
2023/01/06 04:48:43;;;;;;;3.35;1.73;;;;;;;6.51;78.77;99794.81;5020878;28;20033;-57
2023/01/06 04:51:10;;;;;;;2.95;1.45;;;;;;;6.48;77.90;99798.22;5020505;28;20107;-57
2023/01/06 04:53:39;;;;;;;1.63;1.30;;;;;;;6.48;78.58;99805.09;5018688;28;20080;-57
2023/01/06 04:56:09;;;;;;;3.65;2.15;;;;;;;6.45;77.95;99805.06;5039123;28;20138;-58
2023/01/06 04:58:36;;;;;;;4.03;1.90;;;;;;;6.43;78.54;99813.59;5039919;28;20057;-58
2023/01/06 05:01:04;;;;;;;2.55;1.33;;;;;;;6.41;78.10;99820.47;5038298;28;20049;-58
2023/01/06 05:03:31;;;;;;;1.55;1.42;;;;;;;6.37;78.97;99821.28;5042026;28;20049;-56
2023/01/06 05:06:02;;;;;;;2.10;2.00;;;;;;;6.37;79.31;99818.69;5038424;28;20051;-58
2023/01/06 05:08:30;;;;;;;2.10;1.90;;;;;;;6.35;78.77;99814.38;5041427;28;20053;-58
2023/01/06 05:11:00;;;;;;;1.88;1.75;;;;;;;6.33;78.71;99824.66;5024902;28;20065;-58
2023/01/06 05:13:28;;;;;;;2.65;1.92;;;;;;;6.30;77.79;99827.19;5024972;28;20471;-56
2023/01/06 05:15:54;;;;;;;3.25;1.95;;;;;;;6.27;78.32;99827.16;5024455;28;20592;-57
2023/01/06 05:18:21;;;;;;;2.65;1.92;;;;;;;6.26;78.83;99826.31;5028679;28;20136;-58
2023/01/06 05:20:50;;;;;;;4.65;1.77;;;;;;;6.26;79.24;99830.56;5023497;28;20092;-58
2023/01/06 05:23:17;;;;;;;2.97;1.45;;;;;;;6.24;77.77;99842.53;5024800;28;20049;-58
2023/01/06 05:25:43;;;;;;;4.10;1.38;;;;;;;6.22;77.79;99836.53;5021065;28;20089;-57
2023/01/06 05:28:10;;;;;;;2.83;1.60;;;;;;;6.19;78.36;99837.38;5026557;28;20513;-57
2023/01/06 05:30:37;;;;;;;4.15;1.77;;;;;;;6.12;79.38;99833.84;5043609;28;20072;-58
2023/01/06 05:33:03;;;;;;;2.25;1.42;;;;;;;6.13;78.52;99830.44;5045694;28;20071;-58
2023/01/06 05:35:30;;;;;;;3.78;1.30;;;;;;;6.13;78.98;99819.28;5046769;28;20443;-58
2023/01/06 05:37:56;;;;;;;3.17;1.80;;;;;;;6.12;78.84;99827.84;5043194;28;20126;-59
2023/01/06 05:40:23;;;;;;;2.25;1.50;;;;;;;6.10;79.21;99817.53;5041812;28;20084;-59
2023/01/06 05:42:54;;;;;;;3.30;1.88;;;;;;;6.08;79.65;99816.66;5042385;28;20049;-58
2023/01/06 05:45:22;;;;;;;3.03;0.75;;;;;;;6.08;79.17;99826.09;5022823;28;20456;-59
2023/01/06 05:47:48;;;;;;;2.45;1.33;;;;;;;6.09;78.75;99826.09;5024069;28;20277;-58
2023/01/06 05:50:15;;;;;;;2.40;1.45;;;;;;;6.06;79.19;99823.50;5022115;28;20060;-59
2023/01/06 05:52:42;;;;;;;1.88;1.77;;;;;;;6.07;79.20;99826.91;5034463;28;20045;-58
2023/01/06 05:55:09;;;;;;;3.20;1.73;;;;;;;6.06;78.28;99825.19;5041056;28;20559;-58
2023/01/06 05:57:36;;;;;;;2.10;1.50;;;;;;;6.05;79.55;99829.50;5035691;28;20072;-59
2023/01/06 06:00:04;;;;;;;3.15;1.58;;;;;;;6.04;79.77;99840.59;5040893;28;20045;-58
2023/01/06 06:02:31;;;;;;;4.03;1.35;;;;;;;6.03;79.38;99834.59;5042663;28;20045;-59
2023/01/06 06:04:57;;;;;;;5.63;1.77;;;;;;;6.03;79.33;99833.69;5042492;28;20544;-58
2023/01/06 06:07:24;;;;;;;5.80;1.30;;;;;;;6.03;79.96;99834.59;5043486;28;20103;-58
2023/01/06 06:09:50;;;;;;;4.90;1.65;;;;;;;6.01;78.49;99832.84;5040010;28;20041;-59
2023/01/06 06:12:17;;;;;;;1.55;0.40;;;;;;;6.01;79.44;99825.13;5040361;28;20511;-57
2023/01/06 06:14:44;;;;;;;4.72;1.52;;;;;;;6.02;80.03;99831.97;5042881;28;20710;-59
2023/01/06 06:17:10;;;;;;;7.53;1.73;;;;;;;6.01;79.39;99833.69;5038514;28;20518;-57
2023/01/06 06:19:37;;;;;;;5.72;3.20;;;;;;;6.01;78.99;99835.41;5047585;28;20049;-58
2023/01/06 06:22:03;;;;;;;5.78;2.17;;;;;;;6.02;78.76;99837.97;5041410;28;20543;-58
2023/01/06 06:24:30;;;;;;;7.72;1.98;;;;;;;6.04;79.32;99843.16;5046480;28;20519;-59
2023/01/06 06:26:56;;;;;;;8.35;2.40;;;;;;;6.03;79.96;99836.28;5043918;28;20048;-59
2023/01/06 06:29:23;;;;;;;5.50;0.35;;;;;;;6.05;80.52;99834.63;5042564;28;20472;-58
2023/01/06 06:31:50;;;;;;;4.47;1.75;;;;;;;6.05;79.18;99842.34;5044575;28;20073;-59
2023/01/06 06:34:16;;;;;;;4.13;1.75;;;;;;;6.07;79.48;99848.34;5046837;28;20048;-59
2023/01/06 06:36:43;;;;;;;5.05;1.95;;;;;;;6.06;80.51;99841.50;5044834;28;20077;-58
2023/01/06 06:39:10;;;;;;;2.83;1.98;;;;;;;6.03;79.79;99850.03;5026446;28;20045;-59
2023/01/06 06:41:37;;;;;;;6.72;1.77;;;;;;;6.07;80.68;99848.34;5033464;28;20363;-59
2023/01/06 06:44:04;;;;;;;3.10;0.32;;;;;;;6.08;80.41;99847.50;5043030;28;20608;-58
2023/01/06 06:46:31;;;;;;;19.75;7.07;;;;;;;6.07;80.29;99845.78;5036241;28;20721;-57
2023/01/06 06:48:57;;;;;;;14.93;6.07;;;;;;;6.10;80.71;99850.09;5044405;28;20037;-58
2023/01/06 06:51:24;;;;;;;12.95;5.05;;;;;;;6.09;79.73;99844.09;5042768;28;20052;-59
2023/01/06 06:53:51;;;;;;;12.15;2.90;;;;;;;6.09;79.71;99841.53;5040105;28;20460;-58
2023/01/06 06:56:19;;;;;;;12.32;3.05;;;;;;;6.09;80.63;99844.09;5041074;28;20751;-59
2023/01/06 06:58:46;;;;;;;9.15;4.05;;;;;;;6.10;80.60;99843.25;5038920;28;20139;-57
2023/01/06 07:01:16;;;;;;;6.05;2.53;;;;;;;6.10;79.15;99835.53;5039304;28;20068;-59
2023/01/06 07:03:43;;;;;;;;;;;;;;;6.01;80.75;99836.25;5050177;28;20045;-58
2023/01/06 07:06:13;;;;;;;9.57;2.25;;;;;;;6.07;80.34;99838.06;5044045;28;19960;-59
2023/01/06 07:08:45;;;;;;;5.72;3.08;;;;;;;6.08;80.11;99838.94;5042601;28;20115;-58
2023/01/06 07:11:14;;;;;;;6.93;2.90;;;;;;;6.08;80.87;99852.63;5042789;28;20052;-58
2023/01/06 07:13:41;;;;;;;5.75;2.00;;;;;;;6.09;80.96;99844.09;5040703;28;20053;-58
2023/01/06 07:16:08;;;;;;;3.50;1.10;;;;;;;6.08;79.88;99842.34;5037822;28;20688;-57
2023/01/06 07:18:35;;;;;;;6.72;3.30;;;;;;;6.09;79.73;99841.53;5038153;28;20041;-59
2023/01/06 07:21:03;;;;;;;8.38;1.65;;;;;;;6.10;79.71;99845.81;5044907;28;20044;-58
2023/01/06 07:23:30;;;;;;;3.08;1.50;;;;;;;6.10;80.25;99845.81;5043279;28;20130;-58
2023/01/06 07:25:59;;;;;;;15.50;6.28;;;;;;;6.09;80.65;99846.69;5040029;28;20084;-59
2023/01/06 07:28:27;;;;;;;16.38;6.32;;;;;;;6.09;80.06;99849.25;5043515;28;20116;-58
2023/01/06 07:30:54;;;;;;;10.07;2.90;;;;;;;6.08;80.61;99847.50;5043277;28;20045;-57
2023/01/06 07:33:21;;;;;;;7.38;1.75;;;;;;;6.07;80.62;99856.06;5044314;28;20048;-59
2023/01/06 07:35:52;;;;;;;5.35;2.00;;;;;;;6.09;80.80;99858.66;5045848;28;20048;-58
2023/01/06 07:38:19;;;;;;;11.10;2.85;;;;;;;6.07;81.38;99861.22;5040607;28;20567;-58
2023/01/06 07:40:46;;;;;;;3.75;2.53;;;;;;;6.07;80.46;99866.34;5042004;28;20041;-58
2023/01/06 07:43:13;;;;;;;4.78;1.67;;;;;;;6.05;79.81;99868.06;5039306;28;20060;-59
2023/01/06 07:45:39;;;;;;;6.28;1.75;;;;;;;6.05;79.72;99873.19;5037170;28;20053;-59
2023/01/06 07:48:07;;;;;;;6.72;2.05;;;;;;;6.07;81.41;99870.63;5044181;28;20153;-58
2023/01/06 07:50:34;;;;;;;10.18;1.70;;;;;;;6.06;79.68;99874.91;5036809;28;20132;-59
2023/01/06 07:53:02;;;;;;;4.22;1.92;;;;;;;6.06;80.67;99880.06;5042197;28;20057;-59
2023/01/06 07:55:29;;;;;;;3.83;1.65;;;;;;;6.03;81.01;99874.84;5036496;28;20060;-58
2023/01/06 07:57:57;;;;;;;8.05;2.00;;;;;;;6.04;80.58;99876.59;5035671;28;20053;-59
2023/01/06 08:00:24;;;;;;;5.55;1.88;;;;;;;6.04;79.60;99874.03;5038559;28;20041;-59
2023/01/06 08:02:51;;;;;;;5.53;1.83;;;;;;;6.02;81.30;99863.69;5042061;28;20068;-58
2023/01/06 08:05:18;;;;;;;5.15;1.75;;;;;;;6.02;80.60;99867.97;5038316;28;20128;-59
2023/01/06 08:07:44;;;;;;;6.28;2.03;;;;;;;6.03;79.64;99869.69;5038838;28;20095;-58
2023/01/06 08:10:11;;;;;;;7.20;2.58;;;;;;;6.01;80.58;99861.97;5039931;28;20128;-58
2023/01/06 08:12:38;;;;;;;7.60;3.60;;;;;;;6.02;80.80;99862.84;5034850;28;20053;-57
2023/01/06 08:15:05;;;;;;;3.47;2.00;;;;;;;6.05;79.70;99857.78;5038081;28;20102;-58
2023/01/06 08:17:32;;;;;;;3.22;2.90;;;;;;;6.06;81.30;99869.78;5040267;28;20057;-58
2023/01/06 08:19:58;;;;;;;4.30;2.67;;;;;;;6.08;80.86;99872.38;5036464;28;20122;-58
2023/01/06 08:22:29;;;;;;;4.25;1.67;;;;;;;6.11;79.81;99868.13;5036652;28;20127;-59
2023/01/06 08:24:55;;;;;;;4.80;2.33;;;;;;;6.15;81.35;99869.03;5035132;28;20164;-58
2023/01/06 08:27:23;;;;;;;6.55;2.33;;;;;;;6.18;80.15;99879.34;5038105;28;20136;-58
2023/01/06 08:29:50;;;;;;;6.28;2.08;;;;;;;6.28;80.94;99880.31;5041467;28;20059;-59
2023/01/06 08:32:17;;;;;;;6.68;2.13;;;;;;;6.38;80.37;99881.31;5040372;28;20052;-58
2023/01/06 08:34:45;;;;;;;8.63;3.63;;;;;;;6.59;80.74;99875.56;5042515;28;20110;-59
2023/01/06 08:37:11;;;;;;;15.50;3.50;;;;;;;6.72;81.17;99875.69;5039675;28;20083;-59
2023/01/06 08:39:38;;;;;;;5.13;2.10;;;;;;;6.75;79.75;99875.72;5044959;28;20041;-58
2023/01/06 08:42:05;;;;;;;4.70;2.17;;;;;;;6.83;80.03;99879.22;5041116;28;20103;-59
2023/01/06 08:44:31;;;;;;;6.82;2.78;;;;;;;6.94;80.24;99885.34;5041829;28;20040;-58
2023/01/06 08:46:58;;;;;;;6.43;1.35;;;;;;;7.23;80.96;99876.13;5043509;28;20045;-59
2023/01/06 08:49:24;;;;;;;5.45;0.85;;;;;;;7.51;79.41;99888.38;5046248;28;20665;-58
2023/01/06 08:51:51;;;;;;;5.13;1.92;;;;;;;7.79;80.14;99885.97;5037956;28;20045;-59
2023/01/06 08:54:18;;;;;;;4.90;2.28;;;;;;;8.03;78.62;99889.53;5043778;28;20057;-59
2023/01/06 08:56:44;;;;;;;7.00;1.98;;;;;;;8.22;78.53;99895.66;5047530;28;20502;-57
2023/01/06 08:59:15;;;;;;;4.57;1.40;;;;;;;8.37;78.33;99894.84;5042702;28;20037;-58
2023/01/06 09:01:43;;;;;;;3.90;1.80;;;;;;;8.37;78.47;99905.16;5041492;28;20057;-58
2023/01/06 09:04:11;;;;;;;8.30;1.48;;;;;;;8.34;78.29;99902.56;5044379;28;20052;-59
2023/01/06 09:06:39;;;;;;;3.30;1.55;;;;;;;8.30;77.93;99908.56;5042381;28;20517;-59
2023/01/06 09:09:06;;;;;;;5.05;1.75;;;;;;;8.27;78.24;99911.16;5045120;28;20048;-59
2023/01/06 09:11:33;;;;;;;6.40;1.65;;;;;;;8.25;77.55;99911.16;5043952;28;20049;-58
2023/01/06 09:14:00;;;;;;;3.45;1.58;;;;;;;8.26;77.50;99904.25;5046217;28;20096;-59
2023/01/06 09:16:27;;;;;;;5.38;2.20;;;;;;;8.35;77.74;99894.00;5042560;28;20068;-56
2023/01/06 09:18:53;;;;;;;6.63;1.88;;;;;;;8.53;77.77;99892.31;5041946;28;20218;-58
2023/01/06 09:21:22;;;;;;;4.38;1.88;;;;;;;8.83;77.58;99901.03;5023593;28;20570;-59
2023/01/06 09:23:49;;;;;;;5.25;1.85;;;;;;;9.25;77.80;99889.03;5027540;28;20087;-59
2023/01/06 09:26:19;;;;;;;8.25;3.38;;;;;;;9.59;77.25;99887.31;5026940;28;20065;-59
2023/01/06 09:28:46;;;;;;;4.72;2.63;;;;;;;10.00;77.44;99899.28;5033972;28;20045;-59
2023/01/06 09:31:13;;;;;;;11.60;2.42;;;;;;;10.31;76.47;99897.44;5036416;28;20127;-60
2023/01/06 09:33:44;;;;;;;4.85;1.92;;;;;;;10.62;75.54;99892.16;5020357;28;20050;-59
2023/01/06 09:36:11;;;;;;;5.43;2.63;;;;;;;10.85;74.35;99898.94;5035106;28;20045;-59
2023/01/06 09:38:38;;;;;;;7.47;1.83;;;;;;;10.79;74.64;99898.13;5037854;28;20060;-59
2023/01/06 09:44:18;;;;;;;8.35;0.93;;;;;;;10.15;73.33;99893.22;5016425;28;20388;-57
2023/01/06 09:46:49;;;;;;;3.65;0.50;;;;;;;9.98;74.10;99916.53;4979803;28;20072;-58
2023/01/06 09:52:05;;;;;;;4.57;1.20;;;;;;;9.98;72.78;99919.13;5075028;27;20402;-58
2023/01/06 09:54:39;;;;;;;6.20;1.58;;;;;;;9.67;74.27;99918.31;5018191;28;20833;-57
2023/01/06 09:57:14;;;;;;;5.07;1.38;;;;;;;9.47;74.16;99919.19;5022693;28;20053;-59
2023/01/06 10:02:39;;;;;;;4.70;0.80;;;;;;;9.35;74.24;99914.88;5009675;28;20419;-59
2023/01/06 10:05:45;;;;;;;5.13;1.40;;;;;;;9.24;75.10;99920.91;4988977;28;20081;-59
2023/01/06 10:11:25;;;;;;;3.03;0.65;;;;;;;9.02;75.53;99911.41;5073575;27;20894;-58
2023/01/06 10:16:48;;;;;;;3.35;0.55;;;;;;;8.91;75.71;99914.84;5023349;28;20404;-59
2023/01/06 10:22:21;;;;;;;5.22;1.67;;;;;;;9.43;76.58;99922.63;5045426;28;20433;-60
2023/01/06 10:27:34;;;;;;;7.03;1.73;;;;;;;10.40;74.72;99916.41;5051349;28;20422;-58
2023/01/06 10:30:03;;;;;;;2.33;0.82;;;;;;;10.90;75.49;99923.09;5011551;28;20049;-59
2023/01/06 10:32:33;;;;;;;3.15;1.08;;;;;;;11.44;75.17;99919.25;5009430;28;20050;-58
2023/01/06 10:35:01;;;;;;;7.35;1.10;;;;;;;11.73;73.07;99919.84;5015808;28;20046;-58
2023/01/06 10:37:36;;;;;;;4.95;0.77;;;;;;;11.97;71.94;99918.75;5018873;28;20116;-59
2023/01/06 10:40:16;;;;;;;4.90;0.88;;;;;;;12.06;72.06;99921.28;4991010;28;20050;-58
2023/01/06 10:42:54;;;;;;;3.05;0.75;;;;;;;12.09;71.88;99917.78;5008347;28;20050;-60
2023/01/06 10:45:25;;;;;;;3.67;0.63;;;;;;;11.89;70.88;99923.16;5004926;28;20107;-59
2023/01/06 10:47:52;;;;;;;2.05;0.65;;;;;;;11.74;70.19;99922.44;5001566;28;20105;-60
2023/01/06 10:50:19;;;;;;;3.83;0.52;;;;;;;11.64;70.66;99906.09;5014765;28;20567;-59
2023/01/06 10:52:46;;;;;;;3.65;0.90;;;;;;;11.49;70.77;99912.31;5016058;28;20069;-60
2023/01/06 10:55:37;;;;;;;2.78;0.90;;;;;;;11.26;70.90;99909.88;5015475;28;20073;-58
2023/01/06 11:03:30;;;;;;;6.07;0.70;;;;;;;10.79;71.05;99903.28;5030013;28;20413;-59
2023/01/06 11:08:36;;;;;;;7.40;2.72;;;;;;;10.87;72.69;99907.53;5095907;27;20410;-57
2023/01/06 11:11:10;;;;;;;5.00;2.15;;;;;;;10.96;71.67;99917.00;5055849;28;20040;-58
2023/01/06 11:13:56;;;;;;;4.90;2.95;;;;;;;10.91;72.34;99911.88;5059056;28;20070;-58
2023/01/06 11:16:33;;;;;;;2.13;1.98;;;;;;;10.80;72.06;99901.56;5061348;28;20044;-59
2023/01/06 11:19:03;;;;;;;3.38;1.63;;;;;;;10.80;72.23;99896.38;5061101;28;20056;-59
2023/01/06 11:21:42;;;;;;;3.65;2.30;;;;;;;10.77;72.76;99902.44;5076051;28;20049;-59
2023/01/06 11:24:26;;;;;;;3.75;1.50;;;;;;;10.69;72.44;99899.03;5080666;28;20123;-59
2023/01/06 11:26:55;;;;;;;8.13;1.88;;;;;;;10.68;72.71;99899.91;5068458;28;20036;-60
2023/01/06 11:29:29;;;;;;;3.85;1.38;;;;;;;10.66;71.88;99899.03;5060046;28;20102;-59
2023/01/06 11:31:59;;;;;;;4.22;1.42;;;;;;;10.67;72.19;99900.75;5057799;28;20134;-59
2023/01/06 11:34:28;;;;;;;2.92;1.67;;;;;;;10.70;72.58;99911.09;5058958;28;20141;-60
2023/01/06 11:36:56;;;;;;;4.07;1.45;;;;;;;10.71;72.26;99897.28;5047212;28;20115;-58
2023/01/06 11:39:28;;;;;;;6.93;1.75;;;;;;;10.79;73.38;99905.88;5055785;28;20068;-60
2023/01/06 11:42:00;;;;;;;3.42;1.40;;;;;;;10.84;73.28;99898.06;5052799;28;20118;-59
2023/01/06 11:44:32;;;;;;;7.10;2.42;;;;;;;10.87;73.05;99902.38;5057067;28;20052;-59
2023/01/06 11:47:05;;;;;;;3.03;1.80;;;;;;;10.85;72.32;99888.56;5059635;28;20051;-56
2023/01/06 11:55:17;;;;;;;2.30;1.00;;;;;;;10.67;72.28;99874.84;5037925;27;20409;-59
2023/01/06 11:57:57;;;;;;;5.40;0.73;;;;;;;10.63;73.03;99878.34;5075411;28;20100;-60
2023/01/06 12:00:33;;;;;;;2.80;0.75;;;;;;;10.60;72.53;99868.84;5051655;28;20107;-60
2023/01/06 12:08:32;;;;;;;3.25;0.50;;;;;;;10.31;72.42;99861.22;5102507;27;20392;-59
2023/01/06 12:11:11;;;;;;;6.88;0.98;;;;;;;10.23;72.80;99853.50;5046638;28;20048;-59
2023/01/06 12:13:38;;;;;;;2.10;0.32;;;;;;;10.18;72.56;99861.28;5042436;28;20087;-60
2023/01/06 12:16:24;;;;;;;2.35;0.57;;;;;;;10.07;73.03;99848.38;5055663;28;20205;-58
2023/01/06 12:18:51;;;;;;;2.60;1.60;;;;;;;10.03;72.83;99857.88;5065699;28;20442;-58
2023/01/06 12:21:26;;;;;;;2.40;0.47;;;;;;;9.96;73.32;99845.81;5076475;28;20075;-58
2023/01/06 12:23:56;;;;;;;4.90;1.00;;;;;;;9.84;72.99;99838.09;5075357;28;20082;-60
2023/01/06 12:26:24;;;;;;;0.55;0.35;;;;;;;9.82;73.75;99839.81;5073786;28;20057;-57
2023/01/06 12:28:53;;;;;;;3.22;0.30;;;;;;;9.76;73.63;99844.16;5072197;28;20114;-58
2023/01/06 12:34:08;;;;;;;1.90;1.70;;;;;;;9.70;73.56;99833.84;5039923;28;20417;-58
2023/01/06 12:36:58;;;;;;;6.32;1.98;;;;;;;9.67;73.73;99822.63;5001943;28;20054;-59
2023/01/06 12:39:44;;;;;;;5.28;0.98;;;;;;;9.65;73.60;99825.22;5002580;28;20096;-58
2023/01/06 12:42:34;;;;;;;5.57;1.35;;;;;;;9.61;73.85;99828.69;4999798;28;20042;-58
2023/01/06 12:45:09;;;;;;;5.78;1.48;;;;;;;9.64;73.52;99828.69;4999361;28;20074;-58
2023/01/06 12:47:43;;;;;;;1.52;1.08;;;;;;;9.61;73.87;99828.69;5000808;28;20042;-60
2023/01/06 12:50:39;;;;;;;2.20;1.23;;;;;;;9.57;73.89;99829.56;5001604;28;20498;-60
2023/01/06 13:04:41;;;;;;;2.45;0.28;;;;;;;9.79;73.67;99821.75;5058877;27;20888;-57
2023/01/06 13:12:42;;;;;;;2.97;0.40;;;;;;;9.74;73.47;99814.88;5047990;28;20439;-59
2023/01/06 13:15:14;;;;;;;;;;;;;;;9.66;74.23;99810.56;4990274;28;20621;-59
2023/01/06 13:17:49;;;;;;;4.53;0.75;;;;;;;9.71;73.85;99801.94;4986781;28;19921;-58
2023/01/06 13:41:07;;;;;;;6.70;1.05;;;;;;;9.78;74.64;99787.25;5050328;28;20388;-58
2023/01/06 13:43:34;;;;;;;3.25;0.68;;;;;;;9.81;73.91;99789.84;5061984;28;20472;-59
2023/01/06 13:46:06;;;;;;;3.10;0.38;;;;;;;9.79;74.18;99796.72;5064287;28;20048;-59
2023/01/06 13:48:38;;;;;;;3.97;0.50;;;;;;;9.78;74.53;99797.59;5062278;28;20044;-57
2023/01/06 13:51:10;;;;;;;4.93;0.77;;;;;;;9.79;74.40;99791.53;5062757;28;20107;-58
2023/01/06 13:53:39;;;;;;;2.30;1.50;;;;;;;9.77;74.01;99793.28;5066373;28;20977;-60
2023/01/06 13:59:21;;;;;;;6.90;1.42;;;;;;;9.76;74.19;99813.13;5026705;27;20418;-59
2023/01/06 14:01:48;;;;;;;3.92;1.45;;;;;;;9.83;73.83;99807.94;5010993;28;20518;-58
2023/01/06 14:07:08;;;;;;;6.43;1.67;;;;;;;9.81;74.64;99788.97;5037050;28;20419;-59
2023/01/06 14:09:39;;;;;;;4.53;0.80;;;;;;;9.80;74.66;99788.13;5002155;28;20501;-60
2023/01/06 14:12:08;;;;;;;2.85;0.47;;;;;;;9.80;74.52;99787.25;5000894;28;20076;-59